createdAt,value
2023-02-01T00:01:33.020Z,7.30
2023-02-01T00:05:34.187Z,5.67
2023-02-01T00:09:35.346Z,6.10
2023-02-01T00:13:39.699Z,5.50
2023-02-01T00:17:40.862Z,6.50
2023-02-01T00:21:42.112Z,7.10
2023-02-01T00:25:43.305Z,6.83
2023-02-01T00:29:45.377Z,6.87
2023-02-01T00:33:49.886Z,6.93
2023-02-01T00:37:50.957Z,6.70
2023-02-01T00:41:52.627Z,7.00
2023-02-01T00:45:53.830Z,7.20
2023-02-01T00:49:54.996Z,6.63
2023-02-01T00:53:56.756Z,7.97
2023-02-01T00:57:57.907Z,7.10
2023-02-01T01:01:59.007Z,7.83
2023-02-01T01:06:02.453Z,7.60
2023-02-01T01:10:04.171Z,7.67
2023-02-01T01:14:07.222Z,6.87
2023-02-01T01:18:09.023Z,7.40
2023-02-01T01:22:10.164Z,8.47
2023-02-01T01:26:15.105Z,7.87
2023-02-01T01:30:16.831Z,7.80
2023-02-01T01:34:17.901Z,8.23
2023-02-01T01:38:19.053Z,8.70
2023-02-01T01:42:20.129Z,8.30
2023-02-01T01:46:27.494Z,8.43
2023-02-01T01:50:32.974Z,8.30
2023-02-01T01:54:40.960Z,8.00
2023-02-01T01:58:42.341Z,9.90
2023-02-01T02:02:46.496Z,7.57
2023-02-01T02:06:57.639Z,9.43
2023-02-01T02:11:01.556Z,8.17
2023-02-01T02:15:05.314Z,8.03
2023-02-01T02:19:19.569Z,9.20
2023-02-01T02:23:42.889Z,9.07
2023-02-01T02:28:03.405Z,8.67
2023-02-01T02:32:32.617Z,9.60
2023-02-01T02:36:37.560Z,10.30
2023-02-01T02:40:51.773Z,8.57
2023-02-01T02:45:30.519Z,8.63
2023-02-01T02:49:44.131Z,9.00
2023-02-01T02:54:13.486Z,8.80
2023-02-01T02:58:34.856Z,9.80
2023-02-01T03:02:56.545Z,8.13
2023-02-01T03:06:57.687Z,8.40
2023-02-01T03:11:08.259Z,7.73
2023-02-01T03:15:12.975Z,6.87
2023-02-01T03:19:24.122Z,6.47
2023-02-01T03:23:29.087Z,5.00
2023-02-01T03:27:34.036Z,5.00
2023-02-01T03:31:35.717Z,5.37
2023-02-01T03:35:49.892Z,5.10
2023-02-01T03:40:00.588Z,5.33
2023-02-01T03:44:08.943Z,6.03
2023-02-01T03:48:13.295Z,6.60
2023-02-01T03:52:27.799Z,7.43
2023-02-01T03:56:30.950Z,8.30
2023-02-01T04:00:32.215Z,8.20
2023-02-01T04:04:34.652Z,8.43
2023-02-01T04:08:35.721Z,7.83
2023-02-01T04:12:36.883Z,7.33
2023-02-01T04:16:38.099Z,7.60
2023-02-01T04:20:39.200Z,8.00
2023-02-01T04:24:40.356Z,7.87
2023-02-01T04:28:41.512Z,9.40
2023-02-01T04:32:42.749Z,9.30
2023-02-01T04:36:45.816Z,9.10
2023-02-01T04:40:49.381Z,9.57
2023-02-01T04:44:50.523Z,9.03
2023-02-01T04:48:51.685Z,8.43
2023-02-01T04:52:52.830Z,7.50
2023-02-01T04:56:53.993Z,8.17
2023-02-01T05:00:55.143Z,8.27
2023-02-01T05:04:56.313Z,7.90
2023-02-01T05:08:57.446Z,7.37
2023-02-01T05:13:17.262Z,8.10
2023-02-01T05:17:18.417Z,6.73
2023-02-01T05:21:19.593Z,6.53
2023-02-01T05:25:20.753Z,6.33
2023-02-01T05:29:21.922Z,7.53
2023-02-01T05:33:23.197Z,5.97
2023-02-01T05:37:24.671Z,5.37
2023-02-01T05:41:25.898Z,5.73
2023-02-01T05:45:27.057Z,5.07
2023-02-01T05:49:28.302Z,5.53
2023-02-01T05:53:29.443Z,5.20
2023-02-01T05:57:30.682Z,4.70
2023-02-01T06:01:31.846Z,4.73
2023-02-01T06:05:32.996Z,4.90
2023-02-01T06:09:35.166Z,3.73
2023-02-01T06:13:38.204Z,3.90
2023-02-01T06:17:41.199Z,3.83
2023-02-01T06:21:42.381Z,3.77
2023-02-01T06:25:43.529Z,3.00
2023-02-01T06:29:44.672Z,3.90
2023-02-01T06:33:47.336Z,2.73
2023-02-01T06:37:48.496Z,2.90
2023-02-01T06:41:50.037Z,2.63
2023-02-01T06:45:51.998Z,2.30
2023-02-01T06:49:53.136Z,2.67
2023-02-01T06:53:54.300Z,2.33
2023-02-01T06:57:55.754Z,3.37
2023-02-01T07:01:57.223Z,2.93
2023-02-01T07:06:01.165Z,2.70
2023-02-01T07:10:03.148Z,3.23
2023-02-01T07:14:04.684Z,3.07
2023-02-01T07:18:05.736Z,3.57
2023-02-01T07:22:06.879Z,3.47
2023-02-01T07:26:12.443Z,3.90
2023-02-01T07:30:13.507Z,3.90
2023-02-01T07:34:14.618Z,3.93
2023-02-01T07:38:16.172Z,3.80
2023-02-01T07:42:18.128Z,3.20
2023-02-01T07:46:19.306Z,3.83
2023-02-01T07:50:20.465Z,3.60
2023-02-01T07:54:21.622Z,3.33
2023-02-01T07:58:23.732Z,3.60
2023-02-01T08:02:24.864Z,3.03
2023-02-01T08:06:27.118Z,3.33
2023-02-01T08:10:28.370Z,4.77
2023-02-01T08:14:29.413Z,3.60
2023-02-01T08:18:30.557Z,3.90
2023-02-01T08:22:33.010Z,4.00
2023-02-01T08:26:34.473Z,4.80
2023-02-01T08:30:38.740Z,4.13
2023-02-01T08:34:39.889Z,4.43
2023-02-01T08:38:41.164Z,4.70
2023-02-01T08:42:51.419Z,4.00
2023-02-01T08:46:52.577Z,5.33
2023-02-01T08:50:53.729Z,5.20
2023-02-01T08:54:54.884Z,4.27
2023-02-01T08:58:56.040Z,4.43
2023-02-01T09:02:57.396Z,5.83
2023-02-01T09:06:58.528Z,5.07
2023-02-01T09:11:03.144Z,5.07
2023-02-01T09:15:07.283Z,4.97
2023-02-01T09:19:24.973Z,4.60
2023-02-01T09:23:11.504Z,5.10
2023-02-01T09:27:12.738Z,5.47
2023-02-01T09:31:13.989Z,5.80
2023-02-01T09:35:15.356Z,5.87
2023-02-01T09:39:16.594Z,4.50
2023-02-01T09:43:27.705Z,4.70
2023-02-01T09:47:29.569Z,4.23
2023-02-01T09:51:40.137Z,4.30
2023-02-01T09:55:47.708Z,5.43
2023-02-01T09:59:52.662Z,4.57
2023-02-01T10:04:03.633Z,5.47
2023-02-01T10:08:08.649Z,4.90
2023-02-01T10:12:39.291Z,4.00
2023-02-01T10:16:50.154Z,5.30
2023-02-01T10:21:01.511Z,7.20
2023-02-01T10:25:15.197Z,7.50
2023-02-01T10:29:19.849Z,4.63
2023-02-01T10:33:27.810Z,4.40
2023-02-01T10:37:32.302Z,4.43
2023-02-01T10:41:36.548Z,4.27
2023-02-01T10:45:39.814Z,2.97
2023-02-01T10:50:04.302Z,3.40
2023-02-01T10:54:21.145Z,4.47
2023-02-01T10:58:33.927Z,4.47
2023-02-01T11:02:36.734Z,4.00
2023-02-01T11:06:40.474Z,4.13
2023-02-01T11:10:42.936Z,3.50
2023-02-01T11:14:44.090Z,3.80
2023-02-01T11:18:45.368Z,4.07
2023-02-01T11:22:55.741Z,3.60
2023-02-01T11:26:58.688Z,4.63
2023-02-01T11:31:03.681Z,4.47
2023-02-01T11:35:06.904Z,2.87
2023-02-01T11:39:17.948Z,3.40
2023-02-01T11:43:29.261Z,3.87
2023-02-01T11:47:33.516Z,3.30
2023-02-01T11:51:44.417Z,3.50
2023-02-01T11:55:57.994Z,4.07
2023-02-01T12:00:27.416Z,4.00
2023-02-01T12:04:54.217Z,4.30
2023-02-01T12:09:10.955Z,3.53
2023-02-01T12:13:24.483Z,4.10
2023-02-01T12:17:38.304Z,4.13
2023-02-01T12:21:49.421Z,3.80
2023-02-01T12:26:13.192Z,4.13
2023-02-01T12:30:33.441Z,3.33
2023-02-01T12:34:44.382Z,3.80
2023-02-01T12:38:52.311Z,3.47
2023-02-01T12:43:00.630Z,2.20
2023-02-01T12:47:14.410Z,3.37
2023-02-01T12:51:25.476Z,4.93
2023-02-01T12:55:36.464Z,3.97
2023-02-01T12:59:59.341Z,3.47
2023-02-01T13:04:19.176Z,3.77
2023-02-01T13:08:26.627Z,3.67
2023-02-01T13:12:52.709Z,4.40
2023-02-01T13:17:06.400Z,3.60
2023-02-01T13:21:11.346Z,3.70
2023-02-01T13:25:16.528Z,4.10
2023-02-01T13:29:20.472Z,3.23
2023-02-01T13:33:53.235Z,4.80
2023-02-01T13:37:43.989Z,3.30
2023-02-01T13:41:58.043Z,3.80
2023-02-01T13:46:08.073Z,3.40
2023-02-01T13:50:16.080Z,3.00
2023-02-01T13:54:30.330Z,3.83
2023-02-01T13:58:35.301Z,3.77
2023-02-01T14:02:46.681Z,4.63
2023-02-01T14:06:51.642Z,3.77
2023-02-01T14:10:59.315Z,4.93
2023-02-01T14:15:23.482Z,4.30
2023-02-01T14:19:27.641Z,4.50
2023-02-01T14:23:30.793Z,3.73
2023-02-01T14:27:35.763Z,4.37
2023-02-01T14:32:11.809Z,4.13
2023-02-01T14:36:15.165Z,3.30
2023-02-01T14:40:22.777Z,3.20
2023-02-01T14:44:27.137Z,4.60
2023-02-01T14:48:32.391Z,4.57
2023-02-01T14:52:38.663Z,7.07
2023-02-01T14:56:40.042Z,4.20
2023-02-01T15:00:45.029Z,3.90
2023-02-01T15:04:46.505Z,5.70
2023-02-01T15:08:47.761Z,5.17
2023-02-01T15:12:50.349Z,5.20
2023-02-01T15:16:53.470Z,7.80
2023-02-01T15:21:09.500Z,7.40
2023-02-01T15:25:03.574Z,4.33
2023-02-01T15:29:04.712Z,4.80
2023-02-01T15:33:19.492Z,3.20
2023-02-01T15:37:22.456Z,4.90
2023-02-01T15:41:30.229Z,5.27
2023-02-01T15:45:33.476Z,3.97
2023-02-01T15:49:40.413Z,3.63
2023-02-01T15:53:47.710Z,3.40
2023-02-01T15:57:49.268Z,5.70
2023-02-01T16:01:51.570Z,3.67
2023-02-01T16:06:01.549Z,6.27
2023-02-01T16:10:08.048Z,4.90
2023-02-01T16:14:09.476Z,4.80
2023-02-01T16:18:12.342Z,3.47
2023-02-01T16:22:13.490Z,3.60
2023-02-01T16:26:14.647Z,4.10
2023-02-01T16:30:18.503Z,2.57
2023-02-01T16:34:20.121Z,4.73
2023-02-01T16:38:22.709Z,3.90
2023-02-01T16:42:23.861Z,3.40
2023-02-01T16:46:29.116Z,6.27
2023-02-01T16:50:32.290Z,3.33
2023-02-01T16:54:33.443Z,3.67
2023-02-01T16:58:35.292Z,5.30
2023-02-01T17:02:36.359Z,4.40
2023-02-01T17:06:38.639Z,4.73
2023-02-01T17:10:40.078Z,5.30
2023-02-01T17:14:42.057Z,4.67
2023-02-01T17:18:43.423Z,4.83
2023-02-01T17:22:44.795Z,4.93
2023-02-01T17:26:46.302Z,4.50
2023-02-01T17:30:47.790Z,3.97
2023-02-01T17:34:49.526Z,4.23
2023-02-01T17:39:03.718Z,3.93
2023-02-01T17:42:55.541Z,5.00
2023-02-01T17:46:58.701Z,4.50
2023-02-01T17:51:01.545Z,3.73
2023-02-01T17:55:06.314Z,3.73
2023-02-01T17:59:07.638Z,4.50
2023-02-01T18:03:24.612Z,4.40
2023-02-01T18:07:25.753Z,4.60
2023-02-01T18:11:27.026Z,4.07
2023-02-01T18:15:29.390Z,5.03
2023-02-01T18:19:30.558Z,5.07
2023-02-01T18:23:31.699Z,4.73
2023-02-01T18:27:32.847Z,3.73
2023-02-01T18:31:37.868Z,3.57
2023-02-01T18:35:39.561Z,3.70
2023-02-01T18:39:40.819Z,3.37
2023-02-01T18:43:42.695Z,4.10
2023-02-01T18:47:43.858Z,4.00
2023-02-01T18:51:46.039Z,4.90
2023-02-01T18:55:47.474Z,5.03
2023-02-01T18:59:48.823Z,3.73
2023-02-01T19:03:55.734Z,5.37
2023-02-01T19:07:53.531Z,4.10
2023-02-01T19:11:54.701Z,4.40
2023-02-01T19:15:56.357Z,3.53
2023-02-01T19:19:58.159Z,4.23
2023-02-01T19:23:59.491Z,5.33
2023-02-01T19:28:00.907Z,3.60
2023-02-01T19:32:02.305Z,4.03
2023-02-01T19:36:05.673Z,5.30
2023-02-01T19:40:10.074Z,3.70
2023-02-01T19:44:11.276Z,3.87
2023-02-01T19:48:15.208Z,4.43
2023-02-01T19:52:17.013Z,3.93
2023-02-01T19:56:18.217Z,4.60
2023-02-01T20:00:20.771Z,4.87
2023-02-01T20:04:22.020Z,3.63
2023-02-01T20:08:23.309Z,3.77
2023-02-01T20:12:24.495Z,4.07
2023-02-01T20:16:26.145Z,3.50
2023-02-01T20:20:28.580Z,3.47
2023-02-01T20:24:29.736Z,4.37
2023-02-01T20:28:33.056Z,4.73
2023-02-01T20:32:34.223Z,4.53
2023-02-01T20:36:35.437Z,4.30
2023-02-01T20:40:37.511Z,3.90
2023-02-01T20:44:38.672Z,3.10
2023-02-01T20:48:44.863Z,3.30
2023-02-01T20:52:46.117Z,3.63
2023-02-01T20:56:47.488Z,4.53
2023-02-01T21:00:48.710Z,4.20
2023-02-01T21:04:49.851Z,5.00
2023-02-01T21:08:51.049Z,3.97
2023-02-01T21:13:03.874Z,3.20
2023-02-01T21:16:55.268Z,2.93
2023-02-01T21:20:57.472Z,4.07
2023-02-01T21:24:59.299Z,3.90
2023-02-01T21:29:01.759Z,3.20
2023-02-01T21:33:03.996Z,3.57
2023-02-01T21:37:05.178Z,4.07
2023-02-01T21:41:24.868Z,3.90
2023-02-01T21:45:26.435Z,3.20
2023-02-01T21:49:28.463Z,4.03
2023-02-01T21:53:29.729Z,4.30
2023-02-01T21:57:30.921Z,4.20
2023-02-01T22:01:32.429Z,5.00
2023-02-01T22:05:33.552Z,6.07
2023-02-01T22:09:34.805Z,8.53
2023-02-01T22:13:35.966Z,5.27
2023-02-01T22:17:37.177Z,3.50
2023-02-01T22:21:41.239Z,3.80
2023-02-01T22:25:42.479Z,3.50
2023-02-01T22:29:43.656Z,2.97
2023-02-01T22:33:46.756Z,3.10
2023-02-01T22:37:47.983Z,2.97
2023-02-01T22:41:49.236Z,3.30
2023-02-01T22:45:50.899Z,3.30
2023-02-01T22:49:52.046Z,3.20
2023-02-01T22:53:56.464Z,4.57
2023-02-01T22:57:57.609Z,3.33
2023-02-01T23:01:59.253Z,3.53
2023-02-01T23:06:01.499Z,4.10
2023-02-01T23:10:03.525Z,3.13
2023-02-01T23:14:05.303Z,3.37
2023-02-01T23:18:06.445Z,4.10
2023-02-01T23:22:07.610Z,3.03
2023-02-01T23:26:08.747Z,3.83
2023-02-01T23:30:11.172Z,4.20
2023-02-01T23:34:12.406Z,3.60
2023-02-01T23:38:13.589Z,3.33
2023-02-01T23:42:14.715Z,3.43
2023-02-01T23:46:16.999Z,3.50
2023-02-01T23:50:18.193Z,3.37
2023-02-01T23:54:21.964Z,3.40
2023-02-01T23:58:23.926Z,3.57
